Time;durP1;ratioP1;P1;durP2;ratioP2;P2;SDS_P1;SDS_P2;PMS_P1;PMS_P2;Temp;Humidity;BMP_temperature;BMP_pressure;BME280_temperature;BME280_humidity;BME280_pressure;Samples;Min_cycle;Max_cycle;Signal;HPM_P1;HPM_P2
2023/07/20 13:53:11;;;;;;;1.60;1.00;;;;;;;;;;5108172;27;20986;-75
2023/07/20 13:55:38;;;;;;;2.20;1.10;;;;;;;;;;5090390;28;20447;-73
2023/07/20 13:58:07;;;;;;;1.83;0.90;;;;;;;;;;5086391;28;20433;-73
2023/07/20 14:00:34;;;;;;;1.30;0.70;;;;;;;;;;5089089;28;20961;-72
2023/07/20 14:03:01;;;;;;;2.50;1.07;;;;;;;;;;5086294;28;20501;-73
2023/07/20 14:05:29;;;;;;;2.17;0.90;;;;;;;;;;5091960;28;20451;-73
2023/07/20 14:07:57;;;;;;;2.80;1.00;;;;;;;;;;5087903;28;20942;-73
2023/07/20 14:10:26;;;;;;;1.77;0.90;;;;;;;;;;5090977;28;20448;-74
2023/07/20 14:14:08;;;;;;;1.70;0.93;;;;;;;;;;5043676;28;20703;-76
2023/07/20 14:16:35;;;;;;;2.03;1.07;;;;;;;;;;5042499;28;20444;-74
2023/07/20 14:19:04;;;;;;;1.43;0.73;;;;;;;;;;5038047;28;20438;-74
2023/07/20 14:21:33;;;;;;;1.30;0.70;;;;;;;;;;5023296;28;20478;-74
2023/07/20 14:24:00;;;;;;;1.60;1.00;;;;;;;;;;5024034;28;20625;-75
2023/07/20 14:26:27;;;;;;;2.70;1.08;;;;;;;;;;5022416;28;20200;-74
2023/07/20 14:28:55;;;;;;;1.67;1.00;;;;;;;;;;5022743;28;20264;-76
2023/07/20 14:31:23;;;;;;;4.40;0.98;;;;;;;;;;5022369;28;20219;-73
2023/07/20 14:33:51;;;;;;;1.60;1.00;;;;;;;;;;5020348;28;20666;-72
2023/07/20 14:36:20;;;;;;;1.98;0.80;;;;;;;;;;5021549;28;20745;-72
2023/07/20 14:38:47;;;;;;;1.90;1.10;;;;;;;;;;5017551;28;20211;-72
2023/07/20 14:41:15;;;;;;;2.00;1.27;;;;;;;;;;5019879;28;20631;-71
2023/07/20 14:43:42;;;;;;;2.33;1.00;;;;;;;;;;5019831;28;20219;-71
2023/07/20 14:46:10;;;;;;;1.83;1.10;;;;;;;;;;5022659;28;20569;-72
2023/07/20 14:48:39;;;;;;;2.70;1.02;;;;;;;;;;5025855;28;20235;-71
2023/07/20 14:51:06;;;;;;;1.67;0.95;;;;;;;;;;5021930;28;20212;-74
2023/07/20 14:53:34;;;;;;;1.70;0.90;;;;;;;;;;5020959;28;20367;-75
2023/07/20 14:56:02;;;;;;;1.42;0.90;;;;;;;;;;5019789;28;20229;-75
2023/07/20 14:58:32;;;;;;;1.70;0.88;;;;;;;;;;5020656;28;20209;-75
2023/07/20 15:00:59;;;;;;;1.50;0.70;;;;;;;;;;5021241;28;20344;-71
2023/07/20 15:03:27;;;;;;;1.80;1.10;;;;;;;;;;5021016;28;20206;-73
2023/07/20 15:05:57;;;;;;;3.15;0.85;;;;;;;;;;5017433;28;20192;-73
2023/07/20 15:08:24;;;;;;;2.15;0.80;;;;;;;;;;5020287;28;20223;-74
2023/07/20 15:10:52;;;;;;;1.63;0.85;;;;;;;;;;5019311;28;20282;-72
2023/07/20 15:13:19;;;;;;;1.83;1.10;;;;;;;;;;5021589;28;20623;-73
2023/07/20 15:15:48;;;;;;;1.73;1.05;;;;;;;;;;5015537;28;20193;-73
2023/07/20 15:18:18;;;;;;;1.80;1.08;;;;;;;;;;5020049;28;20193;-74
2023/07/20 15:20:47;;;;;;;6.55;1.58;;;;;;;;;;5022607;28;20274;-74
2023/07/20 15:23:17;;;;;;;1.80;1.02;;;;;;;;;;5020915;28;20197;-73
2023/07/20 15:25:45;;;;;;;1.58;0.98;;;;;;;;;;5004731;28;20205;-74
2023/07/20 15:28:12;;;;;;;1.40;0.77;;;;;;;;;;5003948;28;20197;-74
2023/07/20 15:30:40;;;;;;;1.95;1.00;;;;;;;;;;5009948;28;20224;-73
2023/07/20 15:33:07;;;;;;;1.80;0.90;;;;;;;;;;5010456;28;20217;-74
2023/07/20 15:35:35;;;;;;;3.35;1.23;;;;;;;;;;5002575;28;20276;-73
2023/07/20 15:38:02;;;;;;;1.50;0.90;;;;;;;;;;5007860;28;20232;-72
2023/07/20 15:40:31;;;;;;;1.65;0.80;;;;;;;;;;5006122;28;20221;-73
2023/07/20 15:42:59;;;;;;;2.22;1.20;;;;;;;;;;5005545;28;20197;-72
2023/07/20 15:45:31;;;;;;;1.80;1.40;;;;;;;;;;5005288;28;20227;-74
2023/07/20 15:47:59;;;;;;;3.33;1.52;;;;;;;;;;5009062;28;20212;-74
2023/07/20 15:50:30;;;;;;;3.55;1.30;;;;;;;;;;5005400;28;20252;-73
2023/07/20 15:52:58;;;;;;;1.48;0.70;;;;;;;;;;5003678;28;20267;-74
2023/07/20 15:55:26;;;;;;;1.88;1.10;;;;;;;;;;5008349;28;20228;-73
2023/07/20 15:57:57;;;;;;;1.88;0.95;;;;;;;;;;5009302;28;20639;-74
2023/07/20 16:00:25;;;;;;;1.70;0.90;;;;;;;;;;5004066;28;20279;-74
2023/07/20 16:02:52;;;;;;;1.70;0.90;;;;;;;;;;5007933;28;20220;-75
2023/07/20 16:05:19;;;;;;;1.65;1.00;;;;;;;;;;5006910;28;20227;-72
2023/07/20 16:07:47;;;;;;;1.80;1.10;;;;;;;;;;5008497;28;20228;-75
2023/07/20 16:10:14;;;;;;;2.75;1.17;;;;;;;;;;5005318;28;20300;-75
2023/07/20 16:12:42;;;;;;;1.40;0.80;;;;;;;;;;5009386;28;20221;-75
2023/07/20 16:15:13;;;;;;;2.15;1.20;;;;;;;;;;5006252;28;20201;-72
2023/07/20 16:17:42;;;;;;;2.15;1.23;;;;;;;;;;5008580;28;20197;-73
2023/07/20 16:20:10;;;;;;;1.65;0.98;;;;;;;;;;5004627;28;20699;-72
2023/07/20 16:22:37;;;;;;;2.13;1.13;;;;;;;;;;5006135;28;20698;-72
2023/07/20 16:25:08;;;;;;;1.77;1.00;;;;;;;;;;5007270;28;20251;-72
2023/07/20 16:31:05;;;;;;;1.88;1.27;;;;;;;;;;5006855;28;20215;-72
2023/07/20 16:33:34;;;;;;;1.75;1.08;;;;;;;;;;5003256;28;20272;-72
2023/07/20 16:36:02;;;;;;;2.67;1.33;;;;;;;;;;5003605;28;20228;-72
2023/07/20 16:38:30;;;;;;;1.50;0.95;;;;;;;;;;5003308;28;20198;-72
2023/07/20 16:40:57;;;;;;;2.95;1.38;;;;;;;;;;5008320;28;20275;-70
2023/07/20 16:43:25;;;;;;;2.03;0.93;;;;;;;;;;5006779;28;20193;-72
2023/07/20 16:45:52;;;;;;;1.58;0.98;;;;;;;;;;5006065;28;20201;-72
2023/07/20 16:48:20;;;;;;;1.50;0.75;;;;;;;;;;5004079;28;20612;-72
2023/07/20 16:50:49;;;;;;;1.70;1.00;;;;;;;;;;5005732;28;20290;-72
2023/07/20 16:53:16;;;;;;;1.67;1.08;;;;;;;;;;5003349;28;20244;-71
2023/07/20 16:55:45;;;;;;;2.63;1.17;;;;;;;;;;5000417;28;20273;-72
2023/07/20 16:58:12;;;;;;;1.57;0.77;;;;;;;;;;5003501;28;20201;-74
2023/07/20 17:00:40;;;;;;;2.50;1.30;;;;;;;;;;5006916;28;20220;-72
2023/07/20 17:03:08;;;;;;;2.37;1.17;;;;;;;;;;5001933;28;20225;-74
2023/07/20 17:05:36;;;;;;;1.70;1.00;;;;;;;;;;5002415;28;21012;-75
2023/07/20 17:08:05;;;;;;;2.27;1.10;;;;;;;;;;5003781;28;20460;-76
2023/07/20 17:10:32;;;;;;;1.33;0.80;;;;;;;;;;5000960;28;20612;-74
2023/07/20 17:13:00;;;;;;;1.83;1.00;;;;;;;;;;5005276;28;20575;-74
2023/07/20 17:15:27;;;;;;;1.90;0.83;;;;;;;;;;5001575;28;20568;-76
2023/07/20 17:17:57;;;;;;;2.10;1.10;;;;;;;;;;5008268;28;20204;-71
2023/07/20 17:20:24;;;;;;;1.50;0.90;;;;;;;;;;5004818;28;20301;-71
2023/07/20 17:22:52;;;;;;;1.73;1.03;;;;;;;;;;5000907;28;20263;-72
2023/07/20 17:25:21;;;;;;;1.73;1.00;;;;;;;;;;4999112;28;20490;-71
2023/07/20 17:27:49;;;;;;;1.50;0.80;;;;;;;;;;4998868;28;20251;-72
2023/07/20 17:30:17;;;;;;;1.90;1.17;;;;;;;;;;5007403;28;20459;-72
2023/07/20 17:32:45;;;;;;;1.70;0.97;;;;;;;;;;5008806;28;20513;-72
2023/07/20 17:35:13;;;;;;;1.70;0.93;;;;;;;;;;5000920;28;20455;-72
2023/07/20 17:37:41;;;;;;;1.40;0.67;;;;;;;;;;5006158;28;20545;-72
2023/07/20 17:40:10;;;;;;;1.30;0.80;;;;;;;;;;5003193;28;21009;-71
2023/07/20 17:42:39;;;;;;;1.63;1.00;;;;;;;;;;5006937;28;20468;-71
2023/07/20 17:45:08;;;;;;;2.57;1.73;;;;;;;;;;5005003;28;20877;-71
2023/07/20 17:47:36;;;;;;;1.40;0.70;;;;;;;;;;5005175;28;20484;-71
2023/07/20 17:50:04;;;;;;;2.17;1.03;;;;;;;;;;5003707;28;20531;-72
2023/07/20 17:52:32;;;;;;;1.70;1.00;;;;;;;;;;5003891;28;20955;-72
2023/07/20 17:55:00;;;;;;;1.87;0.93;;;;;;;;;;5007522;28;20475;-72
2023/07/20 17:57:27;;;;;;;1.57;0.83;;;;;;;;;;5002238;28;20456;-71
2023/07/20 17:59:56;;;;;;;1.70;0.90;;;;;;;;;;5000613;28;20484;-72
2023/07/20 18:02:25;;;;;;;3.70;2.27;;;;;;;;;;5003797;28;20540;-71
2023/07/20 18:04:53;;;;;;;1.30;0.80;;;;;;;;;;5000838;28;21027;-70
2023/07/20 18:07:20;;;;;;;6.03;3.10;;;;;;;;;;5002594;28;20935;-72
2023/07/20 18:09:48;;;;;;;1.60;0.70;;;;;;;;;;5002836;28;20503;-72
2023/07/20 18:12:15;;;;;;;3.03;1.13;;;;;;;;;;5001863;28;20494;-72
2023/07/20 18:14:43;;;;;;;2.37;1.07;;;;;;;;;;5004491;28;20531;-72
2023/07/20 18:17:12;;;;;;;2.83;1.30;;;;;;;;;;5006782;28;20460;-71
2023/07/20 18:19:39;;;;;;;2.17;1.00;;;;;;;;;;5002281;28;20468;-71
2023/07/20 18:22:07;;;;;;;1.70;0.97;;;;;;;;;;5003533;28;21128;-73
2023/07/20 18:24:35;;;;;;;1.60;0.97;;;;;;;;;;5001472;28;20543;-70
2023/07/20 18:27:03;;;;;;;1.30;0.80;;;;;;;;;;5006673;28;20448;-71
2023/07/20 18:29:31;;;;;;;2.70;0.93;;;;;;;;;;5007969;28;20460;-72
2023/07/20 18:31:58;;;;;;;1.53;1.07;;;;;;;;;;5004026;28;20456;-72
2023/07/20 18:34:28;;;;;;;1.40;0.70;;;;;;;;;;5001743;28;20473;-72
2023/07/20 18:36:55;;;;;;;1.30;0.60;;;;;;;;;;5000136;28;20464;-72
2023/07/20 18:39:22;;;;;;;1.70;0.80;;;;;;;;;;5003874;28;20514;-72
2023/07/20 18:41:50;;;;;;;2.30;0.90;;;;;;;;;;5002861;28;20464;-72
2023/07/20 18:44:17;;;;;;;1.70;0.97;;;;;;;;;;5001563;28;20457;-72
2023/07/20 18:46:45;;;;;;;1.40;0.77;;;;;;;;;;5007613;28;20464;-71
2023/07/20 18:49:12;;;;;;;2.70;1.20;;;;;;;;;;5005605;28;20874;-71
2023/07/20 18:51:41;;;;;;;56.23;19.10;;;;;;;;;;5005282;28;20934;-72
2023/07/20 18:54:09;;;;;;;6.57;3.43;;;;;;;;;;5000478;28;20588;-71
2023/07/20 18:56:36;;;;;;;5.40;3.27;;;;;;;;;;5006833;28;21198;-70
2023/07/20 18:59:04;;;;;;;5.30;2.70;;;;;;;;;;5002372;28;20539;-74
2023/07/20 19:01:31;;;;;;;2.60;1.20;;;;;;;;;;5012397;28;20463;-76
2023/07/20 19:03:59;;;;;;;2.00;1.17;;;;;;;;;;5008624;28;20456;-70
2023/07/20 19:06:26;;;;;;;8.40;4.13;;;;;;;;;;5003545;28;20462;-73
2023/07/20 19:08:55;;;;;;;4.60;2.47;;;;;;;;;;5006155;28;20979;-73
2023/07/20 19:11:23;;;;;;;2.20;1.20;;;;;;;;;;5009427;28;20507;-72
2023/07/20 19:13:50;;;;;;;2.83;1.30;;;;;;;;;;5118952;22;20497;-69
2023/07/20 19:16:18;;;;;;;2.10;1.40;;;;;;;;;;5060232;28;20968;-69
2023/07/20 19:18:46;;;;;;;2.03;1.70;;;;;;;;;;5056612;28;20488;-70
2023/07/20 19:21:15;;;;;;;1.93;1.27;;;;;;;;;;5063203;28;20987;-70
2023/07/20 19:23:42;;;;;;;1.50;0.93;;;;;;;;;;5057513;28;20441;-71
2023/07/20 19:26:11;;;;;;;2.23;0.83;;;;;;;;;;5063215;28;20532;-72
2023/07/20 19:28:40;;;;;;;1.33;0.70;;;;;;;;;;5070302;28;20960;-71
2023/07/20 19:31:07;;;;;;;2.17;1.03;;;;;;;;;;5063589;28;20533;-71
2023/07/20 19:33:34;;;;;;;2.00;1.20;;;;;;;;;;5061076;28;20453;-70
2023/07/20 19:36:04;;;;;;;1.60;0.83;;;;;;;;;;5060846;28;20457;-72
2023/07/20 19:38:39;;;;;;;2.17;1.27;;;;;;;;;;5058282;28;20511;-72
2023/07/20 19:41:06;;;;;;;2.80;1.80;;;;;;;;;;5057475;28;20473;-69
2023/07/20 19:43:35;;;;;;;2.03;0.97;;;;;;;;;;5057019;28;21032;-70
2023/07/20 19:46:03;;;;;;;2.07;1.00;;;;;;;;;;5062217;28;20979;-72
2023/07/20 19:48:31;;;;;;;1.77;1.00;;;;;;;;;;5061440;28;20446;-71
2023/07/20 19:50:59;;;;;;;2.73;1.20;;;;;;;;;;5061585;28;20477;-72
2023/07/20 19:53:27;;;;;;;1.67;0.80;;;;;;;;;;5059898;28;20473;-72
2023/07/20 19:55:59;;;;;;;2.80;1.50;;;;;;;;;;5061384;28;20954;-71
2023/07/20 19:58:26;;;;;;;1.40;0.80;;;;;;;;;;5063351;28;20451;-70
2023/07/20 20:00:56;;;;;;;1.97;0.93;;;;;;;;;;5061695;28;20469;-70
2023/07/20 20:03:27;;;;;;;2.13;1.00;;;;;;;;;;5059470;28;20503;-68
2023/07/20 20:05:55;;;;;;;2.07;0.73;;;;;;;;;;5061053;28;20507;-72
2023/07/20 20:08:25;;;;;;;1.80;0.93;;;;;;;;;;5063566;28;20992;-72
2023/07/20 20:10:53;;;;;;;2.33;0.83;;;;;;;;;;5064311;28;20473;-72
2023/07/20 20:13:21;;;;;;;3.20;1.20;;;;;;;;;;5057734;28;20892;-72
2023/07/20 20:15:49;;;;;;;2.70;0.90;;;;;;;;;;5063457;28;20543;-71
2023/07/20 20:18:20;;;;;;;2.00;1.10;;;;;;;;;;5066111;28;20637;-71
2023/07/20 20:20:48;;;;;;;2.53;1.43;;;;;;;;;;5064113;28;20488;-74
2023/07/20 20:23:19;;;;;;;1.87;1.07;;;;;;;;;;5060063;28;20956;-70
2023/07/20 20:25:46;;;;;;;6.40;1.40;;;;;;;;;;5062188;28;20451;-71
2023/07/20 20:28:16;;;;;;;1.60;0.83;;;;;;;;;;5025671;28;20441;-73
2023/07/20 20:30:44;;;;;;;3.00;1.40;;;;;;;;;;5062955;28;20557;-70
2023/07/20 20:46:11;;;;;;;1.70;0.90;;;;;;;;;;6071949;23;20442;-72
2023/07/20 20:48:44;;;;;;;1.50;0.87;;;;;;;;;;5008865;28;20849;-72
2023/07/20 20:51:12;;;;;;;1.60;0.70;;;;;;;;;;4970848;28;20918;-72
2023/07/20 20:53:39;;;;;;;2.30;0.93;;;;;;;;;;4955369;28;20461;-72
2023/07/20 20:56:07;;;;;;;1.90;1.10;;;;;;;;;;4933087;29;20842;-73
2023/07/20 20:58:34;;;;;;;2.07;1.10;;;;;;;;;;4909042;29;20472;-72
2023/07/20 21:01:02;;;;;;;1.63;0.87;;;;;;;;;;4923135;24;20490;-77
2023/07/20 21:03:30;;;;;;;1.50;0.87;;;;;;;;;;4801344;29;20452;-77
2023/07/20 21:05:58;;;;;;;2.03;0.90;;;;;;;;;;4613416;30;20843;-77
2023/07/20 21:08:27;;;;;;;2.33;0.80;;;;;;;;;;4509054;31;20468;-77
2023/07/20 21:10:57;;;;;;;1.43;0.73;;;;;;;;;;4477089;31;20504;-77
2023/07/20 21:13:25;;;;;;;2.00;0.90;;;;;;;;;;4453156;32;20484;-77
2023/07/20 21:15:53;;;;;;;1.83;0.87;;;;;;;;;;4489584;31;20586;-77
2023/07/20 21:18:20;;;;;;;1.80;0.70;;;;;;;;;;4452009;32;20499;-77
2023/07/20 21:20:49;;;;;;;1.90;0.80;;;;;;;;;;4476698;31;20509;-77
2023/07/20 21:23:18;;;;;;;1.27;0.60;;;;;;;;;;4451170;32;20493;-77
2023/07/20 21:25:47;;;;;;;1.87;1.17;;;;;;;;;;4476267;31;20827;-77
2023/07/20 21:28:14;;;;;;;3.07;0.80;;;;;;;;;;4452195;32;20554;-77
2023/07/20 21:30:42;;;;;;;1.40;0.90;;;;;;;;;;4450990;32;20590;-77
2023/07/20 21:33:12;;;;;;;1.63;0.80;;;;;;;;;;4476639;31;20508;-76
2023/07/20 21:35:41;;;;;;;2.00;1.07;;;;;;;;;;4452334;32;21044;-77
2023/07/20 21:38:08;;;;;;;1.50;0.87;;;;;;;;;;4451049;32;20492;-77
2023/07/20 21:40:40;;;;;;;2.13;1.47;;;;;;;;;;4475758;31;20512;-77
2023/07/20 21:43:10;;;;;;;2.13;0.90;;;;;;;;;;4452391;31;20927;-77
2023/07/20 21:45:39;;;;;;;1.70;0.77;;;;;;;;;;4450951;31;20858;-77
2023/07/20 21:48:07;;;;;;;1.77;0.87;;;;;;;;;;4453942;32;20517;-76
2023/07/20 21:50:34;;;;;;;2.60;0.93;;;;;;;;;;4453257;32;20595;-77
2023/07/20 21:53:02;;;;;;;2.10;0.90;;;;;;;;;;4452637;31;20534;-78
2023/07/20 21:55:30;;;;;;;3.40;1.53;;;;;;;;;;4451590;32;20501;-76
2023/07/20 21:57:59;;;;;;;2.23;1.10;;;;;;;;;;4449560;32;20560;-76
2023/07/20 22:00:27;;;;;;;2.20;0.93;;;;;;;;;;4446742;32;20509;-77
2023/07/20 22:02:54;;;;;;;1.63;0.93;;;;;;;;;;4451991;32;20566;-77
2023/07/20 22:05:22;;;;;;;2.13;1.23;;;;;;;;;;4464163;31;1530930;-77
2023/07/20 22:08:01;;;;;;;2.13;0.97;;;;;;;;;;4595912;30;20224;-75
2023/07/20 22:10:41;;;;;;;1.97;1.27;;;;;;;;;;4586522;31;20516;-76
2023/07/20 22:13:24;;;;;;;4.20;1.53;;;;;;;;;;4601000;31;20466;-76
2023/07/20 22:15:57;;;;;;;2.17;1.03;;;;;;;;;;4587541;31;20566;-76
2023/07/20 22:18:24;;;;;;;1.63;0.80;;;;;;;;;;4591233;31;20873;-76
2023/07/20 22:20:52;;;;;;;2.10;1.10;;;;;;;;;;4587321;31;20505;-75
2023/07/20 22:23:19;;;;;;;1.93;0.70;;;;;;;;;;4590137;31;20474;-76
2023/07/20 22:25:47;;;;;;;1.50;0.73;;;;;;;;;;4586941;31;20611;-75
2023/07/20 22:28:17;;;;;;;3.57;0.83;;;;;;;;;;4587718;31;20559;-75
2023/07/20 22:46:21;;;;;;;2.63;1.23;;;;;;;;;;5151464;25;20544;-73
2023/07/20 22:48:49;;;;;;;1.63;0.97;;;;;;;;;;4583976;31;20564;-74
2023/07/20 22:51:16;;;;;;;1.60;0.73;;;;;;;;;;4588786;31;20493;-74
2023/07/20 22:53:44;;;;;;;1.97;0.83;;;;;;;;;;4588869;31;20558;-74
2023/07/20 22:56:12;;;;;;;2.20;1.17;;;;;;;;;;4604167;31;20569;-72
2023/07/20 22:58:40;;;;;;;1.60;1.10;;;;;;;;;;4591567;31;21194;-74
2023/07/20 23:01:10;;;;;;;2.13;0.90;;;;;;;;;;4604808;25;21093;-71
2023/07/20 23:03:39;;;;;;;2.03;0.90;;;;;;;;;;4572299;31;20561;-71
2023/07/20 23:06:06;;;;;;;2.03;0.73;;;;;;;;;;4676815;30;20479;-71
2023/07/20 23:08:35;;;;;;;2.40;1.03;;;;;;;;;;4739602;29;20479;-71
2023/07/20 23:11:03;;;;;;;4.23;1.00;;;;;;;;;;4763344;30;21038;-70
2023/07/20 23:13:32;;;;;;;1.97;1.23;;;;;;;;;;4770180;30;20477;-71
2023/07/20 23:16:00;;;;;;;1.40;0.63;;;;;;;;;;4769925;30;20574;-71
2023/07/20 23:18:27;;;;;;;2.03;0.90;;;;;;;;;;4747926;30;20880;-71
2023/07/20 23:20:56;;;;;;;2.67;1.10;;;;;;;;;;4766188;30;20472;-70
2023/07/20 23:23:24;;;;;;;1.83;1.10;;;;;;;;;;4761672;30;20601;-70
2023/07/20 23:25:54;;;;;;;1.93;0.90;;;;;;;;;;4762915;30;20461;-71
2023/07/20 23:28:22;;;;;;;1.60;1.00;;;;;;;;;;4763592;30;20504;-71
2023/07/20 23:43:51;;;;;;;1.80;0.90;;;;;;;;;;5550184;24;20495;-76
2023/07/20 23:46:22;;;;;;;2.80;0.90;;;;;;;;;;4834637;29;20464;-76
2023/07/20 23:48:51;;;;;;;1.50;0.97;;;;;;;;;;4835565;29;20525;-76
2023/07/20 23:51:19;;;;;;;2.33;0.70;;;;;;;;;;4836742;29;20496;-76
2023/07/20 23:53:47;;;;;;;2.10;0.80;;;;;;;;;;4841572;29;20472;-76
2023/07/20 23:56:15;;;;;;;1.60;0.70;;;;;;;;;;4837237;29;20488;-76
2023/07/20 23:58:42;;;;;;;2.73;1.20;;;;;;;;;;4850671;29;20449;-76
